createdAt,value
2023-04-27T00:00:01.023Z,1.74
2023-04-27T00:02:29.502Z,2.03
2023-04-27T00:04:57.929Z,1.77
2023-04-27T00:07:26.778Z,2.80
2023-04-27T00:09:54.622Z,2.74
2023-04-27T00:12:22.974Z,2.91
2023-04-27T00:14:51.161Z,2.62
2023-04-27T00:17:19.056Z,2.30
2023-04-27T00:19:47.740Z,2.41
2023-04-27T00:22:16.159Z,2.74
2023-04-27T00:24:44.307Z,3.25
2023-04-27T00:27:13.749Z,3.63
2023-04-27T00:29:43.252Z,3.45
2023-04-27T00:32:11.548Z,3.06
2023-04-27T00:34:39.850Z,3.08
2023-04-27T00:37:07.868Z,3.17
2023-04-27T00:39:36.418Z,3.34
2023-04-27T00:42:04.862Z,3.21
2023-04-27T00:44:32.838Z,2.77
2023-04-27T00:47:00.773Z,3.10
2023-04-27T00:49:29.325Z,2.76
2023-04-27T00:51:58.126Z,2.62
2023-04-27T00:54:26.277Z,2.66
2023-04-27T00:56:54.538Z,2.77
2023-04-27T00:59:22.948Z,2.14
2023-04-27T01:01:53.400Z,2.26
2023-04-27T01:04:21.836Z,2.49
2023-04-27T01:06:49.906Z,2.51
2023-04-27T01:09:20.047Z,1.99
2023-04-27T01:11:50.912Z,1.84
2023-04-27T01:14:18.805Z,1.42
2023-04-27T01:16:47.323Z,1.63
2023-04-27T01:19:15.902Z,2.73
2023-04-27T01:21:44.052Z,1.78
2023-04-27T01:24:12.080Z,1.62
2023-04-27T01:26:40.323Z,2.06
2023-04-27T01:29:08.371Z,1.68
2023-04-27T01:31:36.515Z,1.17
2023-04-27T01:34:05.000Z,2.23
2023-04-27T01:36:33.091Z,2.43
2023-04-27T01:39:00.965Z,2.26
2023-04-27T01:41:29.264Z,1.70
2023-04-27T01:43:57.165Z,1.77
2023-04-27T01:46:25.236Z,2.33
2023-04-27T01:48:53.534Z,2.31
2023-04-27T01:51:21.614Z,2.34
2023-04-27T01:53:50.248Z,2.20
2023-04-27T01:56:18.594Z,2.70
2023-04-27T01:58:46.492Z,2.66
2023-04-27T02:01:14.548Z,1.62
2023-04-27T02:03:42.917Z,2.16
2023-04-27T02:06:11.166Z,1.39
2023-04-27T02:08:40.256Z,0.90
2023-04-27T02:11:09.766Z,1.10
2023-04-27T02:13:37.809Z,0.98
2023-04-27T02:16:06.710Z,1.65
2023-04-27T02:18:35.356Z,2.07
2023-04-27T02:21:08.944Z,1.39
2023-04-27T02:23:37.451Z,1.22
2023-04-27T02:26:06.141Z,1.65
2023-04-27T02:28:34.065Z,1.69
2023-04-27T02:31:03.287Z,1.66
2023-04-27T02:33:31.708Z,1.57
2023-04-27T02:35:59.632Z,1.64
2023-04-27T02:38:30.503Z,1.91
2023-04-27T02:40:58.817Z,2.21
2023-04-27T02:43:27.277Z,2.92
2023-04-27T02:45:55.131Z,3.42
2023-04-27T02:48:23.368Z,3.38
2023-04-27T02:50:51.255Z,3.51
2023-04-27T02:53:19.222Z,3.52
2023-04-27T02:55:51.403Z,3.94
2023-04-27T02:58:20.144Z,4.24
2023-04-27T03:00:48.991Z,4.03
2023-04-27T03:03:17.210Z,4.29
2023-04-27T03:05:46.672Z,4.37
2023-04-27T03:08:15.054Z,4.49
2023-04-27T03:10:42.922Z,4.59
2023-04-27T03:13:11.144Z,4.58
2023-04-27T03:15:39.462Z,4.46
2023-04-27T03:18:07.368Z,4.45
2023-04-27T03:20:35.241Z,4.81
2023-04-27T03:23:03.499Z,4.24
2023-04-27T03:25:31.503Z,4.22
2023-04-27T03:27:59.608Z,4.00
2023-04-27T03:30:27.838Z,4.20
2023-04-27T03:32:56.594Z,3.86
2023-04-27T03:35:24.960Z,3.85
2023-04-27T03:37:53.409Z,3.65
2023-04-27T03:40:21.531Z,3.59
2023-04-27T03:42:49.396Z,4.14
2023-04-27T03:45:19.422Z,4.20
2023-04-27T03:47:47.366Z,3.97
2023-04-27T03:50:16.503Z,4.13
2023-04-27T03:52:44.784Z,4.17
2023-04-27T03:55:12.772Z,4.31
2023-04-27T03:57:42.013Z,4.14
2023-04-27T04:00:12.565Z,4.32
2023-04-27T04:02:40.785Z,4.21
2023-04-27T04:05:09.621Z,4.26
2023-04-27T04:07:37.637Z,4.30
2023-04-27T04:10:06.629Z,4.30
2023-04-27T04:12:35.183Z,4.43
2023-04-27T04:15:04.308Z,4.91
2023-04-27T04:17:34.230Z,5.38
2023-04-27T04:20:07.287Z,6.55
2023-04-27T04:22:35.293Z,7.41
2023-04-27T04:25:04.610Z,7.40
2023-04-27T04:27:33.700Z,7.98
2023-04-27T04:30:05.102Z,8.44
2023-04-27T04:32:34.240Z,8.84
2023-04-27T04:35:02.631Z,8.44
2023-04-27T04:37:30.675Z,9.03
2023-04-27T04:39:58.989Z,8.64
2023-04-27T04:42:27.754Z,8.89
2023-04-27T04:44:55.797Z,8.47
2023-04-27T04:47:24.038Z,8.64
2023-04-27T04:49:53.223Z,8.90
2023-04-27T04:52:21.489Z,9.01
2023-04-27T04:54:53.396Z,9.03
2023-04-27T04:57:22.463Z,9.77
2023-04-27T04:59:51.017Z,10.39
2023-04-27T05:02:19.043Z,10.97
2023-04-27T05:04:47.222Z,10.94
2023-04-27T05:07:16.409Z,10.19
2023-04-27T05:09:46.742Z,9.87
2023-04-27T05:12:14.764Z,9.96
2023-04-27T05:14:43.970Z,10.25
2023-04-27T05:17:12.691Z,10.02
2023-04-27T05:19:40.758Z,10.37
2023-04-27T05:22:09.015Z,10.70
2023-04-27T05:24:37.056Z,11.15
2023-04-27T05:27:05.328Z,10.72
2023-04-27T05:29:33.987Z,10.73
2023-04-27T05:32:02.157Z,10.92
2023-04-27T05:34:30.067Z,11.67
2023-04-27T05:36:58.357Z,11.89
2023-04-27T05:39:26.492Z,11.56
2023-04-27T05:41:54.438Z,11.87
2023-04-27T05:44:23.049Z,12.14
2023-04-27T05:46:51.225Z,12.28
2023-04-27T05:49:19.100Z,12.13
2023-04-27T05:51:47.372Z,12.05
2023-04-27T05:54:15.764Z,12.22
2023-04-27T05:56:43.722Z,13.39
2023-04-27T05:59:12.341Z,12.76
2023-04-27T06:01:40.498Z,12.59
2023-04-27T06:04:09.124Z,13.14
2023-04-27T06:06:37.309Z,13.47
2023-04-27T06:09:05.394Z,14.48
2023-04-27T06:11:33.693Z,13.38
2023-04-27T06:14:01.557Z,14.15
2023-04-27T06:16:29.838Z,14.79
2023-04-27T06:18:58.404Z,14.29
2023-04-27T06:21:26.716Z,14.34
2023-04-27T06:23:54.685Z,14.71
2023-04-27T06:26:23.110Z,14.86
2023-04-27T06:28:51.067Z,16.01
2023-04-27T06:31:19.616Z,16.77
2023-04-27T06:33:48.388Z,16.24
2023-04-27T06:36:16.502Z,14.09
2023-04-27T06:38:44.549Z,16.21
2023-04-27T06:41:13.209Z,17.15
2023-04-27T06:43:41.164Z,14.73
2023-04-27T06:46:09.185Z,16.72
2023-04-27T06:48:37.587Z,17.50
2023-04-27T06:51:05.830Z,17.26
2023-04-27T06:53:34.072Z,16.75
2023-04-27T06:56:02.714Z,15.29
2023-04-27T06:58:30.686Z,17.06
2023-04-27T07:00:58.654Z,17.21
2023-04-27T07:03:27.102Z,16.27
2023-04-27T07:05:56.818Z,17.84
2023-04-27T07:08:24.951Z,15.23
2023-04-27T07:10:53.444Z,17.43
2023-04-27T07:13:21.612Z,17.59
2023-04-27T07:15:55.274Z,16.31
2023-04-27T07:18:23.954Z,17.40
2023-04-27T07:20:51.938Z,17.87
2023-04-27T07:23:20.077Z,16.71
2023-04-27T07:25:48.413Z,17.71
2023-04-27T07:28:16.544Z,17.58
2023-04-27T07:30:44.965Z,17.35
2023-04-27T07:33:13.544Z,17.52
2023-04-27T07:35:42.251Z,17.21
2023-04-27T07:38:10.203Z,16.93
2023-04-27T07:40:38.626Z,16.26
2023-04-27T07:43:06.599Z,14.59
2023-04-27T07:45:34.795Z,14.61
2023-04-27T07:48:03.377Z,13.90
2023-04-27T07:50:32.148Z,13.93
2023-04-27T07:53:00.375Z,15.58
2023-04-27T07:55:29.169Z,15.68
2023-04-27T07:57:57.775Z,15.69
2023-04-27T08:00:27.033Z,17.10
2023-04-27T08:02:56.191Z,16.15
2023-04-27T08:05:24.977Z,16.15
2023-04-27T08:07:54.580Z,15.81
2023-04-27T08:10:23.882Z,15.98
2023-04-27T08:12:52.088Z,17.37
2023-04-27T08:15:22.429Z,17.86
2023-04-27T08:17:51.609Z,17.32
2023-04-27T08:20:19.753Z,17.53
2023-04-27T08:22:47.748Z,18.30
2023-04-27T08:25:16.086Z,17.71
2023-04-27T08:27:44.154Z,17.79
2023-04-27T08:30:12.343Z,19.26
2023-04-27T08:32:41.272Z,17.50
2023-04-27T08:35:09.718Z,17.38
2023-04-27T08:37:37.865Z,18.03
2023-04-27T08:40:10.115Z,18.42
2023-04-27T08:42:38.511Z,17.75
2023-04-27T08:45:08.835Z,17.83
2023-04-27T08:47:43.368Z,17.52
2023-04-27T08:50:12.832Z,19.37
2023-04-27T08:52:40.945Z,18.06
2023-04-27T08:55:09.426Z,18.45
2023-04-27T08:57:37.745Z,18.38
2023-04-27T09:00:13.540Z,19.07
2023-04-27T09:02:46.609Z,18.63
2023-04-27T09:05:22.825Z,18.56
2023-04-27T09:08:02.895Z,19.52
2023-04-27T09:10:33.870Z,20.18
2023-04-27T09:13:02.262Z,19.59
2023-04-27T09:15:30.378Z,18.48
2023-04-27T09:17:58.941Z,19.56
2023-04-27T09:20:27.559Z,18.28
2023-04-27T09:22:58.711Z,19.04
2023-04-27T09:25:33.715Z,19.21
2023-04-27T09:28:02.115Z,18.94
2023-04-27T09:30:30.970Z,19.12
2023-04-27T09:33:03.899Z,20.09
2023-04-27T09:35:33.242Z,20.19
2023-04-27T09:38:01.918Z,20.03
2023-04-27T09:40:31.597Z,20.05
2023-04-27T09:43:04.054Z,19.04
2023-04-27T09:45:34.119Z,20.44
2023-04-27T09:48:02.963Z,19.01
2023-04-27T09:50:31.841Z,18.90
2023-04-27T09:52:59.783Z,19.73
2023-04-27T09:55:33.293Z,19.98
2023-04-27T09:58:33.283Z,20.08
2023-04-27T10:01:24.407Z,19.72
2023-04-27T10:04:04.748Z,19.07
2023-04-27T10:07:14.784Z,19.58
2023-04-27T10:09:43.009Z,19.25
2023-04-27T10:12:23.939Z,19.35
2023-04-27T10:14:56.968Z,18.77
2023-04-27T10:17:33.484Z,18.37
2023-04-27T10:20:04.166Z,18.94
2023-04-27T10:22:40.437Z,18.97
2023-04-27T10:25:15.202Z,20.26
2023-04-27T10:27:43.219Z,20.50
2023-04-27T10:30:12.734Z,19.57
2023-04-27T10:32:54.619Z,20.12
2023-04-27T10:35:32.747Z,21.30
2023-04-27T10:38:08.850Z,21.23
2023-04-27T10:40:38.509Z,20.14
2023-04-27T10:43:14.422Z,19.64
2023-04-27T10:45:44.155Z,19.47
2023-04-27T10:48:17.804Z,19.78
2023-04-27T10:50:47.036Z,20.11
2023-04-27T10:53:15.882Z,20.50
2023-04-27T10:55:43.881Z,20.16
2023-04-27T10:58:12.479Z,20.12
2023-04-27T11:00:45.004Z,20.50
2023-04-27T11:03:24.264Z,20.82
2023-04-27T11:06:04.421Z,19.48
2023-04-27T11:08:34.357Z,20.04
2023-04-27T11:11:02.535Z,19.97
2023-04-27T11:13:31.152Z,20.46
2023-04-27T11:16:00.303Z,20.75
2023-04-27T11:18:31.816Z,21.36
2023-04-27T11:21:14.294Z,21.65
2023-04-27T11:23:42.583Z,21.84
2023-04-27T11:26:11.884Z,21.49
2023-04-27T11:28:39.813Z,22.14
2023-04-27T11:31:08.149Z,22.45
2023-04-27T11:33:36.608Z,22.63
2023-04-27T11:36:04.709Z,21.43
2023-04-27T11:38:36.416Z,20.13
2023-04-27T11:41:07.962Z,20.71
2023-04-27T11:43:41.122Z,20.58
2023-04-27T11:46:12.869Z,19.23
2023-04-27T11:48:41.384Z,18.07
2023-04-27T11:51:11.354Z,18.06
2023-04-27T11:53:40.332Z,17.76
2023-04-27T11:56:11.161Z,18.28
2023-04-27T11:58:40.119Z,18.07
2023-04-27T12:01:09.200Z,17.44
2023-04-27T12:03:38.163Z,18.47
2023-04-27T12:06:27.575Z,18.55
2023-04-27T12:08:57.215Z,18.17
2023-04-27T12:11:28.381Z,17.62
2023-04-27T12:13:57.644Z,17.59
2023-04-27T12:16:25.593Z,18.51
2023-04-27T12:18:53.652Z,16.93
2023-04-27T12:21:22.452Z,16.97
2023-04-27T12:23:51.027Z,17.80
2023-04-27T12:26:18.957Z,17.88
2023-04-27T12:28:47.314Z,17.64
2023-04-27T12:31:24.724Z,18.30
2023-04-27T12:33:54.491Z,17.44
2023-04-27T12:36:22.437Z,18.31
2023-04-27T12:38:50.630Z,18.77
2023-04-27T12:41:18.905Z,18.43
2023-04-27T12:43:48.677Z,18.68
2023-04-27T12:46:16.860Z,17.81
2023-04-27T12:48:45.360Z,18.66
2023-04-27T12:51:13.548Z,17.97
2023-04-27T12:53:41.523Z,17.50
2023-04-27T12:56:09.827Z,17.54
2023-04-27T12:58:37.731Z,18.67
2023-04-27T13:01:07.940Z,18.37
2023-04-27T13:03:36.669Z,17.75
2023-04-27T13:06:04.839Z,18.81
2023-04-27T13:08:33.046Z,17.34
2023-04-27T13:11:01.655Z,16.10
2023-04-27T13:13:29.720Z,15.58
2023-04-27T13:15:58.609Z,15.99
2023-04-27T13:18:26.957Z,14.82
2023-04-27T13:20:54.786Z,15.40
2023-04-27T13:23:22.744Z,15.29
2023-04-27T13:25:51.028Z,15.90
2023-04-27T13:28:18.931Z,16.82
2023-04-27T13:30:48.993Z,16.80
2023-04-27T13:33:23.200Z,16.46
2023-04-27T13:35:52.101Z,16.41
2023-04-27T13:38:20.545Z,16.43
2023-04-27T13:40:48.582Z,16.84
2023-04-27T13:43:16.529Z,17.43
2023-04-27T13:45:45.618Z,17.30
2023-04-27T13:48:13.661Z,16.45
2023-04-27T13:50:41.625Z,17.00
2023-04-27T13:53:10.012Z,17.27
2023-04-27T13:55:38.024Z,16.09
2023-04-27T13:58:05.983Z,16.34
2023-04-27T14:00:34.895Z,16.88
2023-04-27T14:03:05.000Z,17.40
2023-04-27T14:05:33.185Z,16.98
2023-04-27T14:08:01.065Z,16.93
2023-04-27T14:10:29.740Z,16.98
2023-04-27T14:12:57.712Z,16.62
2023-04-27T14:15:25.689Z,16.21
2023-04-27T14:17:54.004Z,16.30
2023-04-27T14:20:22.005Z,17.08
2023-04-27T14:22:49.941Z,17.10
2023-04-27T14:25:18.392Z,16.90
2023-04-27T14:27:46.411Z,16.51
2023-04-27T14:30:14.498Z,16.81
2023-04-27T14:32:42.850Z,16.70
2023-04-27T14:35:11.079Z,16.76
2023-04-27T14:37:38.954Z,16.77
2023-04-27T14:40:08.198Z,17.10
2023-04-27T14:42:36.408Z,16.40
2023-04-27T14:45:04.682Z,15.75
2023-04-27T14:47:33.017Z,15.76
2023-04-27T14:50:00.998Z,16.24
2023-04-27T14:52:29.279Z,16.08
2023-04-27T14:54:57.543Z,16.05
2023-04-27T14:57:25.428Z,16.06
2023-04-27T14:59:53.381Z,16.43
2023-04-27T15:02:21.672Z,16.39
2023-04-27T15:04:49.693Z,16.76
2023-04-27T15:07:17.761Z,16.01
2023-04-27T15:09:46.335Z,16.40
2023-04-27T15:12:14.349Z,16.05
2023-04-27T15:14:42.517Z,15.50
2023-04-27T15:17:13.236Z,16.40
2023-04-27T15:19:41.476Z,15.90
2023-04-27T15:22:09.478Z,16.26
2023-04-27T15:24:37.896Z,15.64
2023-04-27T15:27:07.756Z,15.69
2023-04-27T15:29:37.535Z,15.88
2023-04-27T15:32:05.646Z,15.35
2023-04-27T15:34:33.765Z,15.31
2023-04-27T15:37:03.130Z,15.08
2023-04-27T15:39:31.313Z,14.75
2023-04-27T15:42:00.047Z,15.36
2023-04-27T15:44:28.537Z,15.20
2023-04-27T15:46:56.548Z,15.68
2023-04-27T15:49:24.582Z,14.78
2023-04-27T15:51:55.416Z,15.08
2023-04-27T15:54:23.492Z,14.75
2023-04-27T15:56:51.972Z,14.48
2023-04-27T15:59:20.255Z,14.40
2023-04-27T16:01:48.198Z,14.46
2023-04-27T16:04:16.726Z,14.36
2023-04-27T16:06:44.761Z,14.18
2023-04-27T16:09:13.304Z,14.21
2023-04-27T16:11:42.850Z,13.98
2023-04-27T16:14:11.040Z,14.16
2023-04-27T16:16:39.096Z,13.95
2023-04-27T16:19:08.934Z,14.16
2023-04-27T16:21:36.963Z,14.15
2023-04-27T16:24:05.243Z,14.11
2023-04-27T16:26:33.532Z,13.96
2023-04-27T16:29:01.622Z,13.56
2023-04-27T16:31:29.509Z,13.59
2023-04-27T16:33:57.830Z,14.02
2023-04-27T16:36:25.793Z,13.62
2023-04-27T16:38:53.776Z,13.12
2023-04-27T16:41:22.802Z,13.43
2023-04-27T16:43:51.201Z,13.48
2023-04-27T16:46:19.291Z,13.49
2023-04-27T16:48:47.564Z,13.45
2023-04-27T16:51:15.553Z,13.07
2023-04-27T16:53:43.434Z,13.15
2023-04-27T16:56:13.636Z,13.36
2023-04-27T16:58:41.637Z,13.25
2023-04-27T17:01:09.552Z,12.99
2023-04-27T17:03:37.787Z,12.77
2023-04-27T17:06:05.886Z,12.88
2023-04-27T17:08:34.411Z,12.83
2023-04-27T17:11:02.785Z,12.64
2023-04-27T17:13:31.926Z,12.47
2023-04-27T17:15:59.887Z,12.35
2023-04-27T17:18:28.179Z,12.12
2023-04-27T17:20:56.101Z,11.75
2023-04-27T17:23:24.068Z,11.59
2023-04-27T17:25:52.361Z,11.39
2023-04-27T17:28:20.871Z,10.91
2023-04-27T17:30:48.790Z,10.58
2023-04-27T17:33:17.297Z,10.21
2023-04-27T17:35:47.296Z,10.61
2023-04-27T17:38:15.691Z,10.65
2023-04-27T17:40:44.200Z,9.80
2023-04-27T17:43:12.081Z,9.59
2023-04-27T17:45:40.099Z,8.90
2023-04-27T17:48:08.496Z,8.73
2023-04-27T17:50:37.881Z,8.47
2023-04-27T17:53:06.112Z,8.02
2023-04-27T17:55:34.432Z,7.93
2023-04-27T17:58:04.257Z,7.16
2023-04-27T18:00:32.401Z,7.21
2023-04-27T18:03:00.959Z,7.18
2023-04-27T18:05:29.012Z,7.61
2023-04-27T18:07:56.894Z,6.81
2023-04-27T18:10:25.154Z,6.42
2023-04-27T18:12:53.210Z,6.14
2023-04-27T18:15:21.255Z,5.95
2023-04-27T18:17:49.641Z,6.16
2023-04-27T18:20:17.674Z,5.51
2023-04-27T18:22:45.709Z,5.88
2023-04-27T18:25:14.023Z,5.79
2023-04-27T18:27:44.119Z,5.96
2023-04-27T18:30:12.332Z,5.25
2023-04-27T18:32:40.663Z,5.21
2023-04-27T18:35:09.023Z,4.82
2023-04-27T18:37:36.956Z,5.43
2023-04-27T18:40:06.170Z,5.56
2023-04-27T18:42:34.103Z,5.04
2023-04-27T18:45:02.101Z,4.75
2023-04-27T18:47:30.427Z,4.74
2023-04-27T18:49:58.455Z,4.34
2023-04-27T18:52:26.385Z,4.41
2023-04-27T18:54:54.632Z,4.57
2023-04-27T18:57:23.041Z,4.26
2023-04-27T18:59:51.016Z,4.16
2023-04-27T19:02:19.240Z,4.27
2023-04-27T19:04:52.780Z,3.99
2023-04-27T19:07:30.197Z,4.33
2023-04-27T19:09:58.166Z,4.27
2023-04-27T19:12:26.116Z,4.31
2023-04-27T19:14:54.341Z,3.88
2023-04-27T19:17:22.510Z,3.85
2023-04-27T19:19:50.599Z,4.49
2023-04-27T19:22:19.051Z,4.24
2023-04-27T19:24:47.311Z,4.05
2023-04-27T19:27:15.286Z,3.58
2023-04-27T19:29:55.058Z,4.06
2023-04-27T19:32:27.404Z,3.50
2023-04-27T19:34:57.135Z,3.36
2023-04-27T19:37:25.302Z,3.20
2023-04-27T19:39:53.285Z,3.40
2023-04-27T19:42:21.598Z,3.52
2023-04-27T19:44:49.514Z,3.33
2023-04-27T19:47:17.376Z,3.47
2023-04-27T19:49:45.882Z,3.26
2023-04-27T19:52:13.905Z,2.99
2023-04-27T19:54:41.956Z,2.93
2023-04-27T19:57:10.170Z,2.58
2023-04-27T19:59:38.220Z,3.69
2023-04-27T20:02:06.310Z,4.23
2023-04-27T20:04:35.423Z,3.35
2023-04-27T20:07:05.609Z,3.08
2023-04-27T20:09:34.197Z,2.97
2023-04-27T20:12:02.275Z,3.29
2023-04-27T20:14:33.885Z,2.77
2023-04-27T20:17:03.099Z,3.20
2023-04-27T20:19:31.267Z,2.74
2023-04-27T20:22:00.940Z,2.88
2023-04-27T20:24:31.385Z,3.62
2023-04-27T20:26:59.514Z,2.49
2023-04-27T20:29:27.496Z,3.04
2023-04-27T20:31:55.782Z,3.20
2023-04-27T20:34:23.796Z,3.66
2023-04-27T20:36:53.266Z,3.07
2023-04-27T20:39:24.318Z,2.62
2023-04-27T20:41:52.249Z,2.95
2023-04-27T20:44:21.201Z,2.59
2023-04-27T20:46:49.646Z,2.19
2023-04-27T20:49:24.668Z,2.50
2023-04-27T20:52:00.646Z,2.31
2023-04-27T20:54:28.744Z,2.73
2023-04-27T20:56:56.676Z,2.24
2023-04-27T20:59:24.980Z,2.26
2023-04-27T21:01:52.906Z,1.97
2023-04-27T21:04:21.135Z,2.48
2023-04-27T21:06:49.699Z,2.12
2023-04-27T21:09:17.649Z,2.77
2023-04-27T21:11:45.616Z,2.90
2023-04-27T21:14:14.125Z,2.89
2023-04-27T21:16:42.276Z,2.49
2023-04-27T21:19:13.205Z,3.58
2023-04-27T21:21:41.558Z,2.74
2023-04-27T21:24:10.065Z,2.96
2023-04-27T21:26:38.013Z,2.67
2023-04-27T21:29:08.392Z,2.57
2023-04-27T21:31:36.751Z,2.27
2023-04-27T21:34:04.876Z,3.04
2023-04-27T21:36:33.343Z,2.80
2023-04-27T21:39:01.354Z,2.37
2023-04-27T21:41:29.368Z,2.61
2023-04-27T21:43:57.642Z,1.92
2023-04-27T21:46:25.764Z,2.00
2023-04-27T21:48:53.642Z,2.43
2023-04-27T21:51:21.909Z,2.06
2023-04-27T21:53:49.878Z,2.66
2023-04-27T21:56:17.911Z,2.33
2023-04-27T21:58:46.246Z,1.85
2023-04-27T22:01:14.682Z,2.18
2023-04-27T22:03:43.061Z,2.22
2023-04-27T22:06:11.124Z,1.92
2023-04-27T22:08:39.070Z,2.03
2023-04-27T22:11:08.161Z,2.08
2023-04-27T22:13:36.162Z,1.87
2023-04-27T22:16:04.189Z,2.00
2023-04-27T22:18:32.525Z,1.95
2023-04-27T22:21:00.426Z,1.67
2023-04-27T22:23:29.795Z,1.80
2023-04-27T22:25:58.132Z,2.03
2023-04-27T22:28:26.217Z,1.95
2023-04-27T22:30:55.157Z,2.08
2023-04-27T22:33:23.369Z,1.76
2023-04-27T22:35:51.380Z,1.70
2023-04-27T22:38:19.315Z,1.62
2023-04-27T22:40:47.666Z,1.66
2023-04-27T22:43:15.652Z,1.74
2023-04-27T22:45:43.654Z,1.58
2023-04-27T22:48:13.034Z,1.43
2023-04-27T22:50:40.948Z,1.90
2023-04-27T22:53:08.927Z,2.67
2023-04-27T22:55:37.140Z,1.82
2023-04-27T22:58:05.228Z,1.57
2023-04-27T23:00:33.124Z,1.37
2023-04-27T23:03:01.666Z,2.16
2023-04-27T23:05:29.696Z,2.21
2023-04-27T23:07:57.706Z,1.79
2023-04-27T23:10:27.015Z,2.49
2023-04-27T23:12:57.220Z,1.82
2023-04-27T23:15:25.480Z,2.79
2023-04-27T23:17:53.509Z,2.11
2023-04-27T23:20:27.885Z,1.36
2023-04-27T23:22:57.387Z,1.13
2023-04-27T23:25:25.388Z,1.09
2023-04-27T23:27:53.371Z,1.33
2023-04-27T23:30:22.482Z,1.12
2023-04-27T23:32:50.542Z,1.19
2023-04-27T23:35:18.606Z,1.50
2023-04-27T23:37:46.873Z,1.54
2023-04-27T23:40:14.883Z,1.41
2023-04-27T23:42:42.806Z,1.18
2023-04-27T23:45:11.564Z,1.93
2023-04-27T23:47:39.745Z,1.54
2023-04-27T23:50:08.447Z,1.54
2023-04-27T23:52:37.355Z,1.90
2023-04-27T23:55:05.815Z,2.72
2023-04-27T23:57:33.858Z,2.70
